createdAt,value
2023-02-28T00:01:23.529Z,82.09
2023-02-28T00:03:49.900Z,80.71
2023-02-28T00:06:16.611Z,80.31
2023-02-28T00:08:43.158Z,81.04
2023-02-28T00:11:14.288Z,80.75
2023-02-28T00:13:43.936Z,80.76
2023-02-28T00:16:12.681Z,81.06
2023-02-28T00:18:39.221Z,81.04
2023-02-28T00:21:06.301Z,81.83
2023-02-28T00:23:33.216Z,81.22
2023-02-28T00:25:59.785Z,82.06
2023-02-28T00:28:26.255Z,81.50
2023-02-28T00:30:52.795Z,81.18
2023-02-28T00:33:19.519Z,80.67
2023-02-28T00:35:49.711Z,81.54
2023-02-28T00:38:17.381Z,80.68
2023-02-28T00:40:43.881Z,80.78
2023-02-28T00:43:10.354Z,81.86
2023-02-28T00:45:36.796Z,81.72
2023-02-28T00:48:03.438Z,82.57
2023-02-28T00:50:29.904Z,83.27
2023-02-28T00:52:56.345Z,83.10
2023-02-28T00:55:22.835Z,83.40
2023-02-28T00:57:49.252Z,82.72
2023-02-28T01:00:16.208Z,82.45
2023-02-28T01:02:42.639Z,82.40
2023-02-28T01:05:09.376Z,81.75
2023-02-28T01:07:35.832Z,81.71
2023-02-28T01:10:02.283Z,81.72
2023-02-28T01:12:30.820Z,81.56
2023-02-28T01:14:57.534Z,81.51
2023-02-28T01:17:24.044Z,83.26
2023-02-28T01:19:50.425Z,82.79
2023-02-28T01:22:16.900Z,82.46
2023-02-28T01:24:43.289Z,82.78
2023-02-28T01:27:09.772Z,84.47
2023-02-28T01:29:36.160Z,85.44
2023-02-28T01:32:02.620Z,86.56
2023-02-28T01:34:29.072Z,86.86
2023-02-28T01:36:55.511Z,87.48
2023-02-28T01:39:22.489Z,87.81
2023-02-28T01:41:48.993Z,88.27
2023-02-28T01:44:53.215Z,87.56
2023-02-28T01:47:19.782Z,87.25
2023-02-28T01:49:46.541Z,86.30
2023-02-28T01:52:19.050Z,86.96
2023-02-28T01:55:07.344Z,86.80
2023-02-28T01:57:38.820Z,87.21
2023-02-28T02:00:14.127Z,87.98
2023-02-28T02:02:46.457Z,88.74
2023-02-28T02:05:21.008Z,88.77
2023-02-28T02:07:51.046Z,89.37
2023-02-28T02:10:19.603Z,89.10
2023-02-28T02:13:00.962Z,88.29
2023-02-28T02:15:38.513Z,88.99
2023-02-28T02:18:25.605Z,89.46
2023-02-28T02:21:17.740Z,88.70
2023-02-28T02:24:06.870Z,88.69
2023-02-28T02:27:00.143Z,88.55
2023-02-28T02:29:51.593Z,88.74
2023-02-28T02:32:47.291Z,90.17
2023-02-28T02:35:32.673Z,88.85
2023-02-28T02:38:10.800Z,89.16
2023-02-28T02:40:47.273Z,89.55
2023-02-28T02:43:30.003Z,90.64
2023-02-28T02:46:03.689Z,89.69
2023-02-28T02:48:35.151Z,90.59
2023-02-28T02:51:12.682Z,90.22
2023-02-28T02:53:46.227Z,89.99
2023-02-28T02:56:14.728Z,90.19
2023-02-28T02:58:44.777Z,90.73
2023-02-28T03:01:31.443Z,90.58
2023-02-28T03:04:02.553Z,91.69
2023-02-28T03:06:29.063Z,90.99
2023-02-28T03:08:55.659Z,91.53
2023-02-28T03:11:22.258Z,90.96
2023-02-28T03:14:23.850Z,91.24
2023-02-28T03:17:31.813Z,90.63
2023-02-28T03:20:20.257Z,91.44
2023-02-28T03:23:09.584Z,91.76
2023-02-28T03:25:59.978Z,91.92
2023-02-28T03:28:42.702Z,91.24
2023-02-28T03:31:38.187Z,90.71
2023-02-28T03:34:15.031Z,90.80
2023-02-28T03:36:49.614Z,91.78
2023-02-28T03:39:27.781Z,91.14
2023-02-28T03:42:00.863Z,90.68
2023-02-28T03:44:31.082Z,90.61
2023-02-28T03:47:05.543Z,90.95
2023-02-28T03:49:40.749Z,91.13
2023-02-28T03:52:09.203Z,91.30
2023-02-28T03:54:42.967Z,90.45
2023-02-28T03:57:39.036Z,90.79
2023-02-28T04:00:13.381Z,90.22
2023-02-28T04:02:40.596Z,90.11
2023-02-28T04:05:08.458Z,90.25
2023-02-28T04:07:35.536Z,90.26
2023-02-28T04:10:02.035Z,90.17
2023-02-28T04:12:28.479Z,90.42
2023-02-28T04:14:54.990Z,89.55
2023-02-28T04:17:21.409Z,89.77
2023-02-28T04:19:47.875Z,89.78
2023-02-28T04:22:14.696Z,90.02
2023-02-28T04:24:44.091Z,90.95
2023-02-28T04:27:10.813Z,90.17
2023-02-28T04:29:37.416Z,90.55
2023-02-28T04:32:05.124Z,90.25
2023-02-28T04:34:33.325Z,90.00
2023-02-28T04:37:17.029Z,90.50
2023-02-28T04:39:44.312Z,90.13
2023-02-28T04:42:11.944Z,90.07
2023-02-28T04:44:38.359Z,89.97
2023-02-28T04:47:04.967Z,89.25
2023-02-28T04:49:32.021Z,88.95
2023-02-28T04:51:58.452Z,88.70
2023-02-28T04:54:25.494Z,89.05
2023-02-28T04:56:51.987Z,89.02
2023-02-28T04:59:18.573Z,89.15
2023-02-28T05:01:49.735Z,88.60
2023-02-28T05:04:16.551Z,88.87
2023-02-28T05:06:43.876Z,88.94
2023-02-28T05:09:12.526Z,89.06
2023-02-28T05:11:40.394Z,88.69
2023-02-28T05:14:11.521Z,88.88
2023-02-28T05:16:38.156Z,88.85
2023-02-28T05:19:04.787Z,87.90
2023-02-28T05:21:36.716Z,88.05
2023-02-28T05:24:06.117Z,88.26
2023-02-28T05:26:36.355Z,88.79
2023-02-28T05:29:02.878Z,88.82
2023-02-28T05:31:29.607Z,88.42
2023-02-28T05:33:56.370Z,88.91
2023-02-28T05:36:24.100Z,87.66
2023-02-28T05:38:51.716Z,88.05
2023-02-28T05:41:20.376Z,88.03
2023-02-28T05:43:47.543Z,87.56
2023-02-28T05:46:14.303Z,87.75
2023-02-28T05:48:43.803Z,87.97
2023-02-28T05:51:10.474Z,87.80
2023-02-28T05:53:37.264Z,87.89
2023-02-28T05:56:04.529Z,87.36
2023-02-28T05:58:31.964Z,88.00
2023-02-28T06:01:00.023Z,87.07
2023-02-28T06:03:27.233Z,86.95
2023-02-28T06:05:54.139Z,86.74
2023-02-28T06:08:20.669Z,86.95
2023-02-28T06:10:47.232Z,87.07
2023-02-28T06:13:13.890Z,87.14
2023-02-28T06:15:40.387Z,86.98
2023-02-28T06:18:07.833Z,87.53
2023-02-28T06:20:34.358Z,87.61
2023-02-28T06:23:00.956Z,87.88
2023-02-28T06:25:28.484Z,87.52
2023-02-28T06:27:55.650Z,87.31
2023-02-28T06:30:27.721Z,87.58
2023-02-28T06:32:55.510Z,87.51
2023-02-28T06:35:22.434Z,86.94
2023-02-28T06:37:49.175Z,86.39
2023-02-28T06:40:16.101Z,86.75
2023-02-28T06:42:42.908Z,85.53
2023-02-28T06:45:10.771Z,85.84
2023-02-28T06:47:41.613Z,85.84
2023-02-28T06:50:12.098Z,85.57
2023-02-28T06:52:38.590Z,86.19
2023-02-28T06:55:08.890Z,85.91
2023-02-28T06:57:37.133Z,86.22
2023-02-28T07:00:09.254Z,86.05
2023-02-28T07:02:39.108Z,85.45
2023-02-28T07:05:07.033Z,86.22
2023-02-28T07:07:33.509Z,84.67
2023-02-28T07:09:59.976Z,84.01
2023-02-28T07:12:26.402Z,84.32
2023-02-28T07:14:52.855Z,84.05
2023-02-28T07:17:19.253Z,84.26
2023-02-28T07:19:45.718Z,84.59
2023-02-28T07:22:14.245Z,84.01
2023-02-28T07:24:42.058Z,83.10
2023-02-28T07:27:08.496Z,82.68
2023-02-28T07:29:34.987Z,83.05
2023-02-28T07:32:01.438Z,81.92
2023-02-28T07:34:27.968Z,81.39
2023-02-28T07:36:55.416Z,80.35
2023-02-28T07:39:23.054Z,80.70
2023-02-28T07:41:49.537Z,79.81
2023-02-28T07:44:16.278Z,80.21
2023-02-28T07:46:42.978Z,78.91
2023-02-28T07:49:09.512Z,77.69
2023-02-28T07:51:35.916Z,77.45
2023-02-28T07:54:02.475Z,76.15
2023-02-28T07:56:29.319Z,76.61
2023-02-28T07:58:56.126Z,75.17
2023-02-28T08:01:22.774Z,75.52
2023-02-28T08:03:49.280Z,75.17
2023-02-28T08:06:18.953Z,74.95
2023-02-28T08:08:45.793Z,75.21
2023-02-28T08:11:12.195Z,74.86
2023-02-28T08:13:38.630Z,74.17
2023-02-28T08:16:07.274Z,73.35
2023-02-28T08:18:34.129Z,73.36
2023-02-28T08:21:00.905Z,74.29
2023-02-28T08:23:27.325Z,72.96
2023-02-28T08:25:57.232Z,72.09
2023-02-28T08:28:26.971Z,71.88
2023-02-28T08:30:53.686Z,72.22
2023-02-28T08:33:20.141Z,72.51
2023-02-28T08:35:46.623Z,72.05
2023-02-28T08:38:13.101Z,73.47
2023-02-28T08:40:39.989Z,72.92
2023-02-28T08:43:06.436Z,71.90
2023-02-28T08:45:33.064Z,72.50
2023-02-28T08:47:59.473Z,73.02
2023-02-28T08:50:25.928Z,72.09
2023-02-28T08:52:52.430Z,72.20
2023-02-28T08:55:18.845Z,72.22
2023-02-28T08:57:45.321Z,72.04
2023-02-28T09:00:15.512Z,72.05
2023-02-28T09:02:43.737Z,71.98
2023-02-28T09:05:10.341Z,72.04
2023-02-28T09:07:36.909Z,70.53
2023-02-28T09:10:03.526Z,70.64
2023-02-28T09:12:34.508Z,70.63
2023-02-28T09:15:00.984Z,70.04
2023-02-28T09:17:30.964Z,70.72
2023-02-28T09:19:58.067Z,69.94
2023-02-28T09:22:24.757Z,70.38
2023-02-28T09:24:51.158Z,69.67
2023-02-28T09:27:17.695Z,70.19
2023-02-28T09:29:44.444Z,67.91
2023-02-28T09:32:11.185Z,68.05
2023-02-28T09:34:38.447Z,67.06
2023-02-28T09:37:05.479Z,65.86
2023-02-28T09:39:32.643Z,64.22
2023-02-28T09:41:59.608Z,63.29
2023-02-28T09:44:46.221Z,61.80
2023-02-28T09:47:19.628Z,62.59
2023-02-28T09:49:48.648Z,62.38
2023-02-28T09:52:20.445Z,63.15
2023-02-28T09:54:47.083Z,62.63
2023-02-28T09:57:39.999Z,62.83
2023-02-28T10:00:18.247Z,60.43
2023-02-28T10:03:24.573Z,60.49
2023-02-28T10:06:09.449Z,59.89
2023-02-28T10:08:57.023Z,60.04
2023-02-28T10:11:24.864Z,59.16
2023-02-28T10:14:03.449Z,58.85
2023-02-28T10:16:38.294Z,57.02
2023-02-28T10:19:12.412Z,58.42
2023-02-28T10:21:58.988Z,57.31
2023-02-28T10:24:35.985Z,57.11
2023-02-28T10:27:15.078Z,56.97
2023-02-28T10:29:45.564Z,57.75
2023-02-28T10:32:16.924Z,56.48
2023-02-28T10:34:43.737Z,55.55
2023-02-28T10:37:14.427Z,54.66
2023-02-28T10:39:42.772Z,54.72
2023-02-28T10:42:27.557Z,55.00
2023-02-28T10:45:14.822Z,55.40
2023-02-28T10:47:55.109Z,56.08
2023-02-28T10:50:30.594Z,55.58
2023-02-28T10:53:09.404Z,56.15
2023-02-28T10:55:36.176Z,56.11
2023-02-28T10:58:02.724Z,56.72
2023-02-28T11:00:35.509Z,56.11
2023-02-28T11:03:01.982Z,56.42
2023-02-28T11:05:33.688Z,55.52
2023-02-28T11:08:18.141Z,55.45
2023-02-28T11:10:55.295Z,56.14
2023-02-28T11:13:26.062Z,56.31
2023-02-28T11:15:55.646Z,55.98
2023-02-28T11:18:47.499Z,56.97
2023-02-28T11:21:22.196Z,56.47
2023-02-28T11:23:51.991Z,56.26
2023-02-28T11:26:41.289Z,55.72
2023-02-28T11:29:12.886Z,55.33
2023-02-28T11:31:39.366Z,56.71
2023-02-28T11:34:25.774Z,55.17
2023-02-28T11:36:54.087Z,54.76
2023-02-28T11:39:20.975Z,54.09
2023-02-28T11:41:55.121Z,53.96
2023-02-28T11:44:42.854Z,52.75
2023-02-28T11:47:18.426Z,53.31
2023-02-28T11:50:11.911Z,52.23
2023-02-28T11:52:53.462Z,51.84
2023-02-28T11:55:39.678Z,52.71
2023-02-28T11:58:20.066Z,52.64
2023-02-28T12:00:58.802Z,52.78
2023-02-28T12:03:44.408Z,53.70
2023-02-28T12:06:21.431Z,54.10
2023-02-28T12:09:07.210Z,52.64
2023-02-28T12:11:42.042Z,51.66
2023-02-28T12:14:42.380Z,52.14
2023-02-28T12:17:30.748Z,51.15
2023-02-28T12:20:24.395Z,51.02
2023-02-28T12:23:18.838Z,50.97
2023-02-28T12:26:02.450Z,51.01
2023-02-28T12:28:35.483Z,50.09
2023-02-28T12:31:25.812Z,50.22
2023-02-28T12:33:55.641Z,49.66
2023-02-28T12:36:27.216Z,49.66
2023-02-28T12:39:11.515Z,50.04
2023-02-28T12:41:45.401Z,49.77
2023-02-28T12:44:29.480Z,49.96
2023-02-28T12:47:01.308Z,49.75
2023-02-28T12:49:49.257Z,50.56
2023-02-28T12:52:21.434Z,49.58
2023-02-28T12:54:58.291Z,50.76
2023-02-28T12:57:36.846Z,50.17
2023-02-28T13:00:17.344Z,47.29
2023-02-28T13:03:02.269Z,49.14
2023-02-28T13:05:47.439Z,48.54
2023-02-28T13:08:23.082Z,48.65
2023-02-28T13:10:55.239Z,48.06
2023-02-28T13:13:29.054Z,49.57
2023-02-28T13:16:03.294Z,47.83
2023-02-28T13:18:33.368Z,49.96
2023-02-28T13:21:01.483Z,48.19
2023-02-28T13:23:39.499Z,48.92
2023-02-28T13:26:06.044Z,48.73
2023-02-28T13:29:21.966Z,48.39
2023-02-28T13:32:09.023Z,48.62
2023-02-28T13:35:07.656Z,48.64
2023-02-28T13:37:38.457Z,49.42
2023-02-28T13:40:08.006Z,48.46
2023-02-28T13:42:45.217Z,48.77
2023-02-28T13:45:11.600Z,49.44
2023-02-28T13:47:47.912Z,48.33
2023-02-28T13:50:27.775Z,49.02
2023-02-28T13:53:12.249Z,47.58
2023-02-28T13:56:02.359Z,48.87
2023-02-28T13:58:48.939Z,48.26
2023-02-28T14:01:43.892Z,47.58
2023-02-28T14:04:32.493Z,48.77
2023-02-28T14:07:01.629Z,48.70
2023-02-28T14:09:36.817Z,47.86
2023-02-28T14:12:40.790Z,48.42
2023-02-28T14:15:50.414Z,47.75
2023-02-28T14:18:20.263Z,48.25
2023-02-28T14:20:49.000Z,47.63
2023-02-28T14:23:31.815Z,48.50
2023-02-28T14:26:07.719Z,48.20
2023-02-28T14:28:45.983Z,48.04
2023-02-28T14:31:49.404Z,48.65
2023-02-28T14:34:33.194Z,48.77
2023-02-28T14:37:03.098Z,47.47
2023-02-28T14:39:34.347Z,48.43
2023-02-28T14:42:05.536Z,48.17
2023-02-28T14:44:32.838Z,49.02
2023-02-28T14:47:07.441Z,49.27
2023-02-28T14:49:42.768Z,49.05
2023-02-28T14:52:23.253Z,49.24
2023-02-28T14:54:55.511Z,47.97
2023-02-28T14:57:34.289Z,48.04
2023-02-28T15:00:15.599Z,48.62
2023-02-28T15:02:43.455Z,48.96
2023-02-28T15:05:19.180Z,49.54
2023-02-28T15:07:46.434Z,49.43
2023-02-28T15:10:20.880Z,48.71
2023-02-28T15:12:55.144Z,49.22
2023-02-28T15:15:28.167Z,49.68
2023-02-28T15:18:06.802Z,49.01
2023-02-28T15:20:34.572Z,49.22
2023-02-28T15:23:01.305Z,49.43
2023-02-28T15:25:28.268Z,49.94
2023-02-28T15:27:58.152Z,50.76
2023-02-28T15:30:31.504Z,50.34
2023-02-28T15:33:09.388Z,49.61
2023-02-28T15:35:36.606Z,49.77
2023-02-28T15:38:25.053Z,50.13
2023-02-28T15:40:56.969Z,50.49
2023-02-28T15:43:31.981Z,50.32
2023-02-28T15:46:07.554Z,51.03
2023-02-28T15:48:36.950Z,50.60
2023-02-28T15:51:09.665Z,51.14
2023-02-28T15:53:52.318Z,51.36
2023-02-28T15:56:25.294Z,50.85
2023-02-28T15:58:58.393Z,52.08
2023-02-28T16:01:29.721Z,51.11
2023-02-28T16:04:00.544Z,52.80
2023-02-28T16:06:37.455Z,52.53
2023-02-28T16:09:08.746Z,52.84
2023-02-28T16:11:39.789Z,52.40
2023-02-28T16:14:06.429Z,52.27
2023-02-28T16:16:34.166Z,53.10
2023-02-28T16:19:00.644Z,52.73
2023-02-28T16:21:27.774Z,53.08
2023-02-28T16:23:54.428Z,51.79
2023-02-28T16:26:24.841Z,52.38
2023-02-28T16:28:52.339Z,53.00
2023-02-28T16:31:19.102Z,54.11
2023-02-28T16:33:46.106Z,52.76
2023-02-28T16:36:21.898Z,52.78
2023-02-28T16:38:48.892Z,53.10
2023-02-28T16:41:25.925Z,53.15
2023-02-28T16:43:54.776Z,54.26
2023-02-28T16:46:24.129Z,54.77
2023-02-28T16:48:52.309Z,54.75
2023-02-28T16:51:19.565Z,54.54
2023-02-28T16:53:46.464Z,54.77
2023-02-28T16:56:17.637Z,55.52
2023-02-28T16:58:44.320Z,56.32
2023-02-28T17:01:10.829Z,57.05
2023-02-28T17:03:37.829Z,57.46
2023-02-28T17:06:05.481Z,56.67
2023-02-28T17:08:33.103Z,57.28
2023-02-28T17:11:00.806Z,57.24
2023-02-28T17:13:27.356Z,57.26
2023-02-28T17:15:53.914Z,57.90
2023-02-28T17:18:22.064Z,57.64
2023-02-28T17:20:49.219Z,57.76
2023-02-28T17:23:15.903Z,58.17
2023-02-28T17:25:42.300Z,58.70
2023-02-28T17:28:10.098Z,59.29
2023-02-28T17:30:36.563Z,59.39
2023-02-28T17:33:02.990Z,59.69
2023-02-28T17:35:29.423Z,59.58
2023-02-28T17:37:56.001Z,59.58
2023-02-28T17:40:24.259Z,60.33
2023-02-28T17:42:53.036Z,60.36
2023-02-28T17:45:19.851Z,60.52
2023-02-28T17:47:48.914Z,61.02
2023-02-28T17:50:18.449Z,61.39
2023-02-28T17:52:45.042Z,62.33
2023-02-28T17:55:12.620Z,62.10
2023-02-28T17:57:39.609Z,61.97
2023-02-28T18:00:09.339Z,62.11
2023-02-28T18:02:35.791Z,62.83
2023-02-28T18:05:04.114Z,63.38
2023-02-28T18:07:30.796Z,63.61
2023-02-28T18:09:57.179Z,64.13
2023-02-28T18:12:23.899Z,63.84
2023-02-28T18:14:50.959Z,63.96
2023-02-28T18:17:17.442Z,64.35
2023-02-28T18:19:43.900Z,65.12
2023-02-28T18:22:10.392Z,65.14
2023-02-28T18:24:37.140Z,64.92
2023-02-28T18:27:03.747Z,64.71
2023-02-28T18:29:31.664Z,65.37
2023-02-28T18:31:58.119Z,64.96
2023-02-28T18:34:25.837Z,64.73
2023-02-28T18:36:53.078Z,65.02
2023-02-28T18:39:19.681Z,64.78
2023-02-28T18:41:46.145Z,64.98
2023-02-28T18:44:19.859Z,65.43
2023-02-28T18:46:47.786Z,65.23
2023-02-28T18:49:14.289Z,65.04
2023-02-28T18:51:44.948Z,65.63
2023-02-28T18:54:12.408Z,65.61
2023-02-28T18:56:38.833Z,66.03
2023-02-28T18:59:06.770Z,65.30
2023-02-28T19:01:34.553Z,65.84
2023-02-28T19:04:02.708Z,66.66
2023-02-28T19:06:30.497Z,66.64
2023-02-28T19:08:58.588Z,67.24
2023-02-28T19:11:26.145Z,67.17
2023-02-28T19:13:52.873Z,67.67
2023-02-28T19:16:21.213Z,68.56
2023-02-28T19:18:48.194Z,67.83
2023-02-28T19:21:16.106Z,68.58
2023-02-28T19:23:42.666Z,68.95
2023-02-28T19:26:14.774Z,69.50
2023-02-28T19:28:41.725Z,71.18
2023-02-28T19:31:21.035Z,70.48
2023-02-28T19:33:47.524Z,71.46
2023-02-28T19:36:15.513Z,71.01
2023-02-28T19:38:42.254Z,72.56
2023-02-28T19:41:10.846Z,73.74
2023-02-28T19:43:37.606Z,73.66
2023-02-28T19:46:04.321Z,74.16
2023-02-28T19:48:31.048Z,75.50
2023-02-28T19:51:02.852Z,75.85
2023-02-28T19:53:33.959Z,76.18
2023-02-28T19:56:00.748Z,76.32
2023-02-28T19:58:28.106Z,77.19
2023-02-28T20:00:54.829Z,76.61
2023-02-28T20:03:21.347Z,76.60
2023-02-28T20:05:48.049Z,76.54
2023-02-28T20:08:15.093Z,76.43
2023-02-28T20:10:41.574Z,74.27
2023-02-28T20:13:08.621Z,73.01
2023-02-28T20:15:36.369Z,73.03
2023-02-28T20:18:03.121Z,72.28
2023-02-28T20:20:29.557Z,72.59
2023-02-28T20:22:56.024Z,72.56
2023-02-28T20:25:22.461Z,71.64
2023-02-28T20:27:48.993Z,72.16
2023-02-28T20:30:15.553Z,72.36
2023-02-28T20:32:42.057Z,71.68
2023-02-28T20:35:11.503Z,71.71
2023-02-28T20:37:38.858Z,71.16
2023-02-28T20:40:06.545Z,71.75
2023-02-28T20:42:32.996Z,72.11
2023-02-28T20:44:59.551Z,72.72
2023-02-28T20:47:26.072Z,72.84
2023-02-28T20:49:52.517Z,71.83
2023-02-28T20:52:18.991Z,72.92
2023-02-28T20:54:45.467Z,73.00
2023-02-28T20:57:11.892Z,73.00
2023-02-28T20:59:39.837Z,72.83
2023-02-28T21:02:07.029Z,72.93
2023-02-28T21:04:33.780Z,73.03
2023-02-28T21:07:00.273Z,72.10
2023-02-28T21:09:27.607Z,72.77
2023-02-28T21:11:54.281Z,72.41
2023-02-28T21:14:21.245Z,73.14
2023-02-28T21:16:47.683Z,73.18
2023-02-28T21:19:14.430Z,72.53
2023-02-28T21:21:44.197Z,72.92
2023-02-28T21:24:12.527Z,73.18
2023-02-28T21:26:40.403Z,72.75
2023-02-28T21:29:07.369Z,73.81
2023-02-28T21:31:35.536Z,73.33
2023-02-28T21:34:04.695Z,73.02
2023-02-28T21:36:35.299Z,73.64
2023-02-28T21:39:07.894Z,73.18
2023-02-28T21:41:35.408Z,74.12
2023-02-28T21:44:01.886Z,74.06
2023-02-28T21:46:29.968Z,73.72
2023-02-28T21:48:57.488Z,74.80
2023-02-28T21:51:27.216Z,74.85
2023-02-28T21:53:54.426Z,74.01
2023-02-28T21:56:24.692Z,73.88
2023-02-28T21:58:52.091Z,73.78
2023-02-28T22:01:21.438Z,74.72
2023-02-28T22:03:49.768Z,74.43
2023-02-28T22:06:17.994Z,75.37
2023-02-28T22:08:46.777Z,75.73
2023-02-28T22:11:14.788Z,75.72
2023-02-28T22:13:41.524Z,75.87
2023-02-28T22:16:13.993Z,76.35
2023-02-28T22:18:41.250Z,76.66
2023-02-28T22:21:09.231Z,76.13
2023-02-28T22:23:37.823Z,76.76
2023-02-28T22:26:06.632Z,77.28
2023-02-28T22:28:33.152Z,76.29
2023-02-28T22:31:00.173Z,76.92
2023-02-28T22:33:27.708Z,77.19
2023-02-28T22:35:54.222Z,76.67
2023-02-28T22:38:20.747Z,76.69
2023-02-28T22:40:47.575Z,76.61
2023-02-28T22:43:14.010Z,76.22
2023-02-28T22:45:41.799Z,77.11
2023-02-28T22:48:09.482Z,77.39
2023-02-28T22:50:35.935Z,76.66
2023-02-28T22:53:02.521Z,76.74
2023-02-28T22:55:28.987Z,76.67
2023-02-28T22:57:55.381Z,77.68
2023-02-28T23:00:22.387Z,76.73
2023-02-28T23:02:48.821Z,76.41
2023-02-28T23:05:15.500Z,77.25
2023-02-28T23:07:42.765Z,76.92
2023-02-28T23:10:15.955Z,76.23
2023-02-28T23:12:50.409Z,76.92
2023-02-28T23:15:18.270Z,77.01
2023-02-28T23:17:45.877Z,77.41
2023-02-28T23:20:14.499Z,77.58
2023-02-28T23:22:41.069Z,77.66
2023-02-28T23:25:07.859Z,77.21
2023-02-28T23:27:34.324Z,77.62
2023-02-28T23:30:00.732Z,77.67
2023-02-28T23:32:27.155Z,77.81
2023-02-28T23:34:55.226Z,77.82
2023-02-28T23:37:21.638Z,77.87
2023-02-28T23:39:48.008Z,77.32
2023-02-28T23:42:14.948Z,77.45
2023-02-28T23:44:41.372Z,77.79
2023-02-28T23:47:07.961Z,77.82
2023-02-28T23:49:34.555Z,77.43
2023-02-28T23:52:02.128Z,78.09
2023-02-28T23:54:29.652Z,78.28
2023-02-28T23:56:56.056Z,78.57
2023-02-28T23:59:22.553Z,78.73
